createdAt,value
2023-10-12T00:01:59.991Z,8.63
2023-10-12T00:04:47.153Z,10.50
2023-10-12T00:07:18.733Z,7.93
2023-10-12T00:09:49.303Z,8.37
2023-10-12T00:12:17.014Z,8.00
2023-10-12T00:14:44.053Z,9.43
2023-10-12T00:17:11.063Z,10.77
2023-10-12T00:19:39.475Z,8.30
2023-10-12T00:22:13.070Z,7.80
2023-10-12T00:24:40.688Z,9.47
2023-10-12T00:27:15.932Z,11.67
2023-10-12T00:29:45.961Z,10.40
2023-10-12T00:32:14.298Z,13.20
2023-10-12T00:34:48.663Z,7.37
2023-10-12T00:37:15.784Z,9.40
2023-10-12T00:39:59.350Z,7.60
2023-10-12T00:42:30.642Z,8.90
2023-10-12T00:44:57.706Z,7.40
2023-10-12T00:47:44.495Z,10.80
2023-10-12T00:50:13.179Z,9.70
2023-10-12T00:52:54.952Z,9.27
2023-10-12T00:55:36.108Z,7.87
2023-10-12T00:58:06.992Z,8.53
2023-10-12T01:00:52.576Z,8.30
2023-10-12T01:03:28.849Z,7.13
2023-10-12T01:06:13.829Z,8.93
2023-10-12T01:08:45.047Z,9.27
2023-10-12T01:11:19.888Z,9.40
2023-10-12T01:13:50.715Z,8.17
2023-10-12T01:16:25.090Z,8.47
2023-10-12T01:19:01.114Z,8.73
2023-10-12T01:21:30.094Z,8.00
2023-10-12T01:24:12.478Z,11.27
2023-10-12T01:26:40.155Z,7.77
2023-10-12T01:29:11.844Z,8.30
2023-10-12T01:31:44.619Z,7.80
2023-10-12T01:34:14.836Z,8.10
2023-10-12T01:36:44.899Z,8.87
2023-10-12T01:39:13.871Z,6.87
2023-10-12T01:41:44.179Z,7.53
2023-10-12T01:44:12.521Z,6.87
2023-10-12T01:46:42.891Z,10.57
2023-10-12T01:49:11.683Z,8.23
2023-10-12T01:51:43.854Z,8.17
2023-10-12T01:54:13.394Z,6.33
2023-10-12T01:56:40.580Z,6.57
2023-10-12T01:59:08.561Z,5.67
2023-10-12T02:01:36.883Z,8.07
2023-10-12T02:04:04.767Z,7.23
2023-10-12T02:06:31.989Z,6.67
2023-10-12T02:09:11.455Z,9.47
2023-10-12T02:11:46.729Z,8.53
2023-10-12T02:14:15.420Z,8.13
2023-10-12T02:16:54.200Z,8.13
2023-10-12T02:19:32.689Z,6.90
2023-10-12T02:22:02.485Z,7.70
2023-10-12T02:24:29.820Z,6.77
2023-10-12T02:27:01.391Z,7.83
2023-10-12T02:29:36.730Z,5.63
2023-10-12T02:32:18.367Z,8.53
2023-10-12T02:34:45.596Z,8.63
2023-10-12T02:37:12.685Z,6.50
2023-10-12T02:39:43.893Z,10.33
2023-10-12T02:42:23.072Z,6.60
2023-10-12T02:44:57.178Z,7.67
2023-10-12T02:47:24.258Z,12.70
2023-10-12T02:49:51.883Z,8.70
2023-10-12T02:52:21.700Z,7.83
2023-10-12T02:54:51.922Z,9.70
2023-10-12T02:57:25.247Z,9.30
2023-10-12T03:00:13.040Z,7.83
2023-10-12T03:02:42.327Z,6.43
2023-10-12T03:05:09.874Z,7.80
2023-10-12T03:07:40.416Z,7.73
2023-10-12T03:10:16.192Z,11.10
2023-10-12T03:12:45.271Z,12.57
2023-10-12T03:15:15.795Z,7.43
2023-10-12T03:17:46.453Z,7.43
2023-10-12T03:20:22.030Z,7.30
2023-10-12T03:22:53.511Z,6.77
2023-10-12T03:25:21.191Z,7.73
2023-10-12T03:27:54.448Z,10.37
2023-10-12T03:30:41.784Z,7.63
2023-10-12T03:33:12.655Z,7.03
2023-10-12T03:35:53.087Z,8.13
2023-10-12T03:38:20.698Z,7.77
2023-10-12T03:40:51.728Z,6.77
2023-10-12T03:43:27.304Z,6.77
2023-10-12T03:46:19.607Z,6.87
2023-10-12T03:49:07.701Z,6.50
2023-10-12T03:51:44.041Z,9.67
2023-10-12T03:54:30.205Z,7.47
2023-10-12T03:57:08.648Z,6.80
2023-10-12T03:59:45.277Z,10.23
2023-10-12T04:02:16.145Z,6.50
2023-10-12T04:05:00.213Z,7.07
2023-10-12T04:07:40.582Z,8.47
2023-10-12T04:10:36.718Z,8.37
2023-10-12T04:13:11.041Z,8.03
2023-10-12T04:16:01.119Z,8.07
2023-10-12T04:18:33.540Z,6.10
2023-10-12T04:21:01.321Z,7.70
2023-10-12T04:23:34.641Z,12.07
2023-10-12T04:26:11.416Z,7.97
2023-10-12T04:28:38.492Z,8.07
2023-10-12T04:31:05.622Z,6.80
2023-10-12T04:33:56.874Z,9.03
2023-10-12T04:36:39.233Z,7.90
2023-10-12T04:39:26.753Z,9.40
2023-10-12T04:42:21.431Z,7.73
2023-10-12T04:45:24.976Z,7.77
2023-10-12T04:47:58.575Z,7.97
2023-10-12T04:50:38.105Z,9.43
2023-10-12T04:53:08.386Z,9.50
2023-10-12T04:55:35.516Z,11.73
2023-10-12T04:58:31.979Z,7.70
2023-10-12T05:01:18.156Z,11.53
2023-10-12T05:04:05.323Z,7.57
2023-10-12T05:06:35.184Z,8.33
2023-10-12T05:09:11.901Z,6.77
2023-10-12T05:11:39.546Z,8.53
2023-10-12T05:14:16.144Z,6.53
2023-10-12T05:16:47.235Z,7.03
2023-10-12T05:19:14.386Z,8.67
2023-10-12T05:21:41.703Z,12.20
2023-10-12T05:24:09.930Z,7.93
2023-10-12T05:26:38.279Z,8.20
2023-10-12T05:29:35.987Z,7.60
2023-10-12T05:32:19.879Z,8.77
2023-10-12T05:34:47.867Z,9.03
2023-10-12T05:37:15.490Z,8.07
2023-10-12T05:39:48.771Z,6.10
2023-10-12T05:42:16.015Z,7.00
2023-10-12T05:44:46.190Z,8.07
2023-10-12T05:47:13.848Z,8.37
2023-10-12T05:49:44.022Z,9.00
2023-10-12T05:52:11.624Z,8.40
2023-10-12T05:54:40.132Z,7.10
2023-10-12T05:57:20.864Z,7.40
2023-10-12T05:59:48.322Z,8.10
2023-10-12T06:02:18.980Z,7.33
2023-10-12T06:04:46.663Z,6.70
2023-10-12T06:07:13.843Z,8.03
2023-10-12T06:09:41.721Z,8.23
2023-10-12T06:12:10.166Z,6.07
2023-10-12T06:14:38.710Z,7.10
2023-10-12T06:17:22.807Z,6.50
2023-10-12T06:19:55.566Z,6.10
2023-10-12T06:22:24.773Z,6.70
2023-10-12T06:24:54.068Z,8.33
2023-10-12T06:27:21.466Z,7.50
2023-10-12T06:29:48.976Z,6.60
2023-10-12T06:32:20.166Z,6.03
2023-10-12T06:35:05.770Z,6.40
2023-10-12T06:38:11.230Z,6.23
2023-10-12T06:40:38.836Z,5.57
2023-10-12T06:43:13.223Z,7.10
2023-10-12T06:45:49.724Z,6.73
2023-10-12T06:48:29.608Z,7.07
2023-10-12T06:51:03.913Z,6.70
2023-10-12T06:53:37.876Z,6.80
2023-10-12T06:56:17.728Z,6.70
2023-10-12T06:58:47.701Z,6.17
2023-10-12T07:01:27.768Z,6.10
2023-10-12T07:03:55.369Z,6.63
2023-10-12T07:06:22.442Z,6.10
2023-10-12T07:08:51.165Z,6.77
2023-10-12T07:11:18.419Z,7.60
2023-10-12T07:13:47.024Z,7.83
2023-10-12T07:16:17.723Z,6.73
2023-10-12T07:18:45.139Z,7.20
2023-10-12T07:21:22.574Z,5.30
2023-10-12T07:23:57.117Z,6.07
2023-10-12T07:26:31.841Z,7.07
2023-10-12T07:28:59.222Z,6.33
2023-10-12T07:31:39.744Z,4.73
2023-10-12T07:34:09.411Z,6.20
2023-10-12T07:36:43.038Z,5.53
2023-10-12T07:39:20.899Z,5.97
2023-10-12T07:42:01.725Z,4.93
2023-10-12T07:44:29.362Z,5.63
2023-10-12T07:46:57.955Z,7.17
2023-10-12T07:49:31.209Z,5.10
2023-10-12T07:52:11.110Z,5.50
2023-10-12T07:54:48.106Z,5.07
2023-10-12T07:57:15.597Z,6.50
2023-10-12T07:59:57.932Z,5.07
2023-10-12T08:02:44.547Z,6.27
2023-10-12T08:05:24.525Z,4.20
2023-10-12T08:08:17.375Z,5.30
2023-10-12T08:10:44.505Z,6.30
2023-10-12T08:13:21.104Z,5.17
2023-10-12T08:15:57.412Z,5.67
2023-10-12T08:18:46.539Z,5.97
2023-10-12T08:21:33.656Z,6.80
2023-10-12T08:24:04.560Z,5.97
2023-10-12T08:26:43.610Z,6.67
2023-10-12T08:29:19.168Z,5.40
2023-10-12T08:31:46.583Z,4.90
2023-10-12T08:34:43.067Z,5.37
2023-10-12T08:37:11.414Z,5.17
2023-10-12T08:39:46.604Z,5.47
2023-10-12T08:42:23.572Z,6.63
2023-10-12T08:44:51.339Z,6.03
2023-10-12T08:47:27.207Z,5.03
2023-10-12T08:49:56.190Z,5.20
2023-10-12T08:52:28.602Z,6.20
2023-10-12T08:55:04.713Z,4.43
2023-10-12T08:57:46.658Z,5.87
2023-10-12T09:00:26.356Z,5.27
2023-10-12T09:03:01.354Z,5.03
2023-10-12T09:05:29.750Z,4.90
2023-10-12T09:08:29.151Z,4.47
2023-10-12T09:11:03.768Z,5.27
2023-10-12T09:13:31.586Z,5.63
2023-10-12T09:16:00.458Z,4.53
2023-10-12T09:18:49.667Z,4.63
2023-10-12T09:21:23.575Z,4.30
2023-10-12T09:24:06.424Z,5.33
2023-10-12T09:26:38.481Z,4.10
2023-10-12T09:29:07.296Z,4.63
2023-10-12T09:31:41.825Z,3.93
2023-10-12T09:34:13.087Z,6.03
2023-10-12T09:36:54.778Z,6.10
2023-10-12T09:39:29.488Z,5.10
2023-10-12T09:41:57.337Z,4.93
2023-10-12T09:44:28.428Z,5.77
2023-10-12T09:46:59.338Z,4.20
2023-10-12T09:49:28.639Z,4.23
2023-10-12T09:52:00.906Z,5.03
2023-10-12T09:54:46.603Z,5.07
2023-10-12T09:57:25.831Z,5.57
2023-10-12T09:59:54.514Z,4.57
2023-10-12T10:02:35.886Z,5.10
2023-10-12T10:05:06.823Z,5.63
2023-10-12T10:07:37.377Z,6.10
2023-10-12T10:10:28.402Z,6.53
2023-10-12T10:12:55.387Z,5.77
2023-10-12T10:15:25.058Z,5.43
2023-10-12T10:17:57.303Z,6.63
2023-10-12T10:20:25.973Z,5.13
2023-10-12T10:22:59.776Z,10.03
2023-10-12T10:25:44.009Z,5.90
2023-10-12T10:28:24.660Z,6.03
2023-10-12T10:30:54.198Z,4.80
2023-10-12T10:33:23.675Z,5.87
2023-10-12T10:36:01.870Z,6.10
2023-10-12T10:38:36.063Z,6.17
2023-10-12T10:41:07.963Z,6.23
2023-10-12T10:43:38.992Z,5.57
2023-10-12T10:46:14.875Z,6.60
2023-10-12T10:51:19.203Z,4.97
2023-10-12T10:53:52.566Z,4.93
2023-10-12T10:56:33.316Z,5.00
2023-10-12T10:59:00.755Z,6.30
2023-10-12T11:01:27.952Z,5.40
2023-10-12T11:03:59.539Z,4.63
2023-10-12T11:06:29.840Z,4.87
2023-10-12T11:09:07.086Z,4.67
2023-10-12T11:11:55.345Z,5.97
2023-10-12T11:14:25.596Z,5.73
2023-10-12T11:16:55.588Z,5.03
2023-10-12T11:19:24.787Z,4.93
2023-10-12T11:21:55.081Z,4.87
2023-10-12T11:24:24.955Z,4.20
2023-10-12T11:26:55.935Z,4.43
2023-10-12T11:29:23.756Z,5.00
2023-10-12T11:32:10.298Z,4.17
2023-10-12T11:34:45.427Z,6.20
2023-10-12T11:37:14.271Z,4.17
2023-10-12T11:39:42.341Z,4.90
2023-10-12T11:42:10.653Z,4.80
2023-10-12T11:44:43.497Z,4.53
2023-10-12T11:47:31.787Z,4.77
2023-10-12T11:49:59.354Z,4.20
2023-10-12T11:52:38.632Z,4.37
2023-10-12T11:55:07.614Z,5.47
2023-10-12T11:57:36.373Z,4.90
2023-10-12T12:00:22.739Z,4.37
2023-10-12T12:02:54.319Z,4.03
2023-10-12T12:05:22.749Z,5.30
2023-10-12T12:07:52.590Z,5.70
2023-10-12T12:10:38.822Z,4.27
2023-10-12T12:13:09.703Z,4.60
2023-10-12T12:15:37.057Z,5.80
2023-10-12T12:18:11.152Z,4.67
2023-10-12T12:20:44.395Z,4.10
2023-10-12T12:23:12.350Z,4.47
2023-10-12T12:25:40.710Z,4.40
2023-10-12T12:28:17.915Z,4.53
2023-10-12T12:30:59.326Z,5.73
2023-10-12T12:33:27.409Z,4.63
2023-10-12T12:36:01.102Z,6.57
2023-10-12T12:38:45.075Z,5.67
2023-10-12T12:41:23.550Z,4.20
2023-10-12T12:43:50.674Z,5.17
2023-10-12T12:46:18.960Z,4.10
2023-10-12T12:48:46.897Z,5.13
2023-10-12T12:51:16.211Z,5.40
2023-10-12T12:53:49.769Z,5.20
2023-10-12T12:56:20.515Z,4.73
2023-10-12T12:58:48.437Z,4.17
2023-10-12T13:01:16.328Z,5.43
2023-10-12T13:03:43.773Z,6.60
2023-10-12T13:06:11.019Z,5.70
2023-10-12T13:08:38.507Z,7.90
2023-10-12T13:11:05.763Z,4.80
2023-10-12T13:13:36.406Z,5.03
2023-10-12T13:16:06.576Z,8.63
2023-10-12T13:18:34.646Z,5.97
2023-10-12T13:21:07.802Z,5.63
2023-10-12T13:23:36.519Z,4.30
2023-10-12T13:26:07.924Z,4.53
2023-10-12T13:28:35.200Z,9.60
2023-10-12T13:31:02.428Z,5.33
2023-10-12T13:33:32.237Z,5.40
2023-10-12T13:35:59.876Z,4.03
2023-10-12T13:38:30.387Z,4.67
2023-10-12T13:40:59.091Z,5.00
2023-10-12T13:43:31.823Z,5.57
2023-10-12T13:46:00.158Z,4.90
2023-10-12T13:48:29.778Z,4.30
2023-10-12T13:51:13.987Z,5.37
2023-10-12T13:53:42.135Z,4.53
2023-10-12T13:56:13.242Z,6.07
2023-10-12T13:58:42.144Z,6.23
2023-10-12T14:01:15.840Z,6.00
2023-10-12T14:03:54.019Z,4.80
2023-10-12T14:06:21.431Z,5.70
2023-10-12T14:08:48.448Z,4.27
2023-10-12T14:11:15.929Z,5.07
2023-10-12T14:13:43.167Z,6.33
2023-10-12T14:16:11.281Z,5.87
2023-10-12T14:18:42.080Z,4.00
2023-10-12T14:21:15.504Z,4.80
2023-10-12T14:23:47.022Z,4.30
2023-10-12T14:26:25.118Z,4.27
2023-10-12T14:28:53.147Z,6.83
2023-10-12T14:31:22.243Z,5.17
2023-10-12T14:33:49.756Z,6.23
2023-10-12T14:36:18.044Z,7.53
2023-10-12T14:38:46.270Z,6.00
2023-10-12T14:41:18.224Z,4.50
2023-10-12T14:43:49.499Z,4.60
2023-10-12T14:46:19.751Z,4.53
2023-10-12T14:48:51.260Z,4.87
2023-10-12T14:51:21.974Z,4.10
2023-10-12T14:53:51.626Z,4.53
2023-10-12T14:56:28.281Z,4.53
2023-10-12T14:58:55.769Z,4.90
2023-10-12T15:01:23.906Z,5.67
2023-10-12T15:03:51.191Z,6.87
2023-10-12T15:06:18.317Z,8.57
2023-10-12T15:08:45.389Z,6.73
2023-10-12T15:11:12.505Z,6.20
2023-10-12T15:13:40.674Z,4.67
2023-10-12T15:16:11.332Z,4.37
2023-10-12T15:18:41.401Z,4.57
2023-10-12T15:21:28.209Z,6.00
2023-10-12T15:23:58.777Z,5.90
2023-10-12T15:26:26.518Z,5.23
2023-10-12T15:28:54.946Z,3.70
2023-10-12T15:31:23.214Z,4.30
2023-10-12T15:33:51.662Z,5.73
2023-10-12T15:36:19.356Z,4.33
2023-10-12T15:38:46.914Z,5.53
2023-10-12T15:41:13.970Z,5.30
2023-10-12T15:43:41.104Z,4.67
2023-10-12T15:46:12.401Z,5.17
2023-10-12T15:48:41.889Z,4.53
2023-10-12T15:51:15.910Z,4.33
2023-10-12T15:53:43.442Z,6.83
2023-10-12T15:56:10.626Z,6.93
2023-10-12T15:58:38.444Z,6.27
2023-10-12T16:01:06.439Z,4.83
2023-10-12T16:03:33.650Z,6.87
2023-10-12T16:06:01.878Z,5.77
2023-10-12T16:08:29.160Z,6.43
2023-10-12T16:10:58.061Z,7.00
2023-10-12T16:13:25.722Z,5.67
2023-10-12T16:15:56.231Z,4.23
2023-10-12T16:18:23.622Z,4.93
2023-10-12T16:20:50.895Z,8.23
2023-10-12T16:23:18.578Z,4.93
2023-10-12T16:25:47.484Z,5.20
2023-10-12T16:28:14.579Z,5.23
2023-10-12T16:30:43.406Z,6.47
2023-10-12T16:33:11.355Z,5.97
2023-10-12T16:35:38.536Z,5.87
2023-10-12T16:38:05.710Z,5.73
2023-10-12T16:40:32.828Z,5.33
2023-10-12T16:43:01.538Z,5.70
2023-10-12T16:45:28.712Z,4.83
2023-10-12T16:47:59.224Z,6.60
2023-10-12T16:50:26.362Z,4.20
2023-10-12T16:52:53.492Z,5.80
2023-10-12T16:55:21.047Z,4.67
2023-10-12T16:57:48.298Z,4.07
2023-10-12T17:00:19.106Z,5.27
2023-10-12T17:02:47.125Z,6.73
2023-10-12T17:05:15.399Z,4.40
2023-10-12T17:07:46.409Z,4.47
2023-10-12T17:10:30.679Z,5.57
2023-10-12T17:12:57.814Z,5.37
2023-10-12T17:15:26.058Z,5.27
2023-10-12T17:17:54.038Z,4.33
2023-10-12T17:20:21.502Z,5.97
2023-10-12T17:22:48.608Z,4.90
2023-10-12T17:25:15.738Z,5.40
2023-10-12T17:27:45.876Z,5.40
2023-10-12T17:30:13.113Z,5.37
2023-10-12T17:32:42.021Z,5.07
2023-10-12T17:35:15.862Z,5.07
2023-10-12T17:37:43.809Z,5.07
2023-10-12T17:40:11.880Z,5.27
2023-10-12T17:42:39.126Z,4.23
2023-10-12T17:45:10.992Z,5.50
2023-10-12T17:47:41.425Z,4.73
2023-10-12T17:50:15.351Z,4.17
2023-10-12T17:52:47.030Z,5.47
2023-10-12T17:55:17.874Z,5.10
2023-10-12T17:57:45.522Z,4.87
2023-10-12T18:00:12.850Z,4.97
2023-10-12T18:02:42.288Z,4.30
2023-10-12T18:05:13.138Z,4.90
2023-10-12T18:07:44.433Z,6.63
2023-10-12T18:10:16.245Z,6.80
2023-10-12T18:12:43.384Z,5.83
2023-10-12T18:15:12.865Z,4.93
2023-10-12T18:17:40.224Z,4.10
2023-10-12T18:20:15.146Z,4.40
2023-10-12T18:22:43.223Z,4.60
2023-10-12T18:25:11.014Z,5.13
2023-10-12T18:27:38.996Z,5.30
2023-10-12T18:30:06.439Z,4.97
2023-10-12T18:32:33.784Z,5.70
2023-10-12T18:35:04.291Z,4.80
2023-10-12T18:37:31.510Z,5.83
2023-10-12T18:39:59.763Z,4.57
2023-10-12T18:42:27.965Z,4.40
2023-10-12T18:44:55.047Z,5.10
2023-10-12T18:47:28.156Z,4.47
2023-10-12T18:50:09.184Z,6.37
2023-10-12T18:52:38.479Z,8.37
2023-10-12T18:55:07.595Z,11.00
2023-10-12T18:57:38.825Z,9.87
2023-10-12T19:00:16.685Z,12.33
2023-10-12T19:02:45.149Z,9.73
2023-10-12T19:05:12.411Z,10.70
2023-10-12T19:07:39.448Z,11.57
2023-10-12T19:10:07.539Z,12.57
2023-10-12T19:12:36.556Z,10.60
2023-10-12T19:15:06.792Z,10.23
2023-10-12T19:17:37.135Z,11.77
2023-10-12T19:20:04.952Z,8.30
2023-10-12T19:22:32.183Z,11.87
2023-10-12T19:25:00.579Z,7.57
2023-10-12T19:27:28.919Z,10.00
2023-10-12T19:29:58.847Z,8.70
2023-10-12T19:32:26.523Z,10.00
2023-10-12T19:34:53.961Z,9.00
2023-10-12T19:37:21.107Z,10.03
2023-10-12T19:39:48.522Z,8.00
2023-10-12T19:42:15.568Z,9.67
2023-10-12T19:44:44.374Z,7.57
2023-10-12T19:47:12.087Z,8.43
2023-10-12T19:49:39.183Z,8.97
2023-10-12T19:52:06.239Z,12.43
2023-10-12T19:54:33.356Z,11.23
2023-10-12T19:57:03.998Z,10.57
2023-10-12T19:59:31.121Z,10.43
2023-10-12T20:01:59.094Z,7.43
2023-10-12T20:04:26.482Z,9.00
2023-10-12T20:06:54.929Z,7.43
2023-10-12T20:09:29.048Z,8.90
2023-10-12T20:11:56.291Z,13.50
2023-10-12T20:14:23.946Z,7.63
2023-10-12T20:16:51.592Z,7.23
2023-10-12T20:19:24.710Z,9.03
2023-10-12T20:21:52.330Z,10.97
2023-10-12T20:24:19.429Z,9.87
2023-10-12T20:26:46.516Z,8.93
2023-10-12T20:29:13.870Z,10.23
2023-10-12T20:31:41.043Z,7.40
2023-10-12T20:34:08.298Z,11.27
2023-10-12T20:36:35.474Z,8.90
2023-10-12T20:39:09.490Z,9.70
2023-10-12T20:41:37.355Z,9.77
2023-10-12T20:44:04.643Z,13.80
2023-10-12T20:46:34.619Z,10.13
2023-10-12T20:49:07.065Z,11.17
2023-10-12T20:51:35.470Z,8.90
2023-10-12T20:54:12.436Z,8.70
2023-10-12T20:56:40.865Z,10.47
2023-10-12T20:59:27.728Z,11.43
2023-10-12T21:02:05.733Z,6.23
2023-10-12T21:04:33.283Z,8.67
2023-10-12T21:07:04.686Z,9.17
2023-10-12T21:09:32.117Z,10.33
2023-10-12T21:12:01.371Z,8.67
2023-10-12T21:14:28.672Z,8.33
2023-10-12T21:17:05.071Z,6.80
2023-10-12T21:19:42.224Z,8.20
2023-10-12T21:22:10.932Z,7.53
2023-10-12T21:24:38.625Z,8.83
2023-10-12T21:27:11.737Z,7.37
2023-10-12T21:29:40.208Z,8.17
2023-10-12T21:32:10.265Z,7.93
2023-10-12T21:34:38.690Z,13.20
2023-10-12T21:37:06.382Z,7.20
2023-10-12T21:39:36.933Z,8.53
2023-10-12T21:42:05.297Z,7.10
2023-10-12T21:44:32.510Z,6.80
2023-10-12T21:47:03.833Z,7.13
2023-10-12T21:49:33.958Z,9.77
2023-10-12T21:52:01.308Z,8.50
2023-10-12T21:54:28.455Z,7.60
2023-10-12T21:56:55.618Z,7.43
2023-10-12T21:59:23.801Z,6.93
2023-10-12T22:02:08.201Z,7.67
2023-10-12T22:04:40.065Z,6.40
2023-10-12T22:07:10.039Z,6.90
2023-10-12T22:09:44.345Z,8.10
2023-10-12T22:12:11.783Z,8.77
2023-10-12T22:14:52.736Z,7.57
2023-10-12T22:17:26.789Z,8.90
2023-10-12T22:19:54.731Z,7.00
2023-10-12T22:22:24.721Z,6.83
2023-10-12T22:24:55.353Z,8.40
2023-10-12T22:27:23.048Z,6.13
2023-10-12T22:29:50.105Z,6.17
2023-10-12T22:32:17.537Z,9.77
2023-10-12T22:34:44.648Z,7.37
2023-10-12T22:37:12.111Z,7.33
2023-10-12T22:39:39.835Z,6.23
2023-10-12T22:42:07.049Z,6.37
2023-10-12T22:44:35.477Z,6.60
2023-10-12T22:47:03.139Z,7.97
2023-10-12T22:49:33.445Z,5.77
2023-10-12T22:52:05.165Z,6.53
2023-10-12T22:54:35.180Z,6.30
2023-10-12T22:57:06.407Z,6.00
2023-10-12T22:59:33.777Z,6.87
2023-10-12T23:02:01.167Z,6.67
2023-10-12T23:04:28.730Z,8.33
2023-10-12T23:06:56.105Z,5.80
2023-10-12T23:09:24.518Z,7.00
2023-10-12T23:11:55.465Z,7.37
2023-10-12T23:14:24.378Z,8.03
2023-10-12T23:16:52.352Z,6.60
2023-10-12T23:19:44.721Z,6.63
2023-10-12T23:22:38.807Z,6.33
2023-10-12T23:25:07.205Z,7.77
2023-10-12T23:27:34.763Z,6.47
2023-10-12T23:30:12.514Z,7.07
2023-10-12T23:32:39.934Z,7.33
2023-10-12T23:35:13.739Z,6.37
2023-10-12T23:37:59.451Z,5.30
2023-10-12T23:40:29.189Z,6.17
2023-10-12T23:42:59.814Z,5.87
2023-10-12T23:45:36.372Z,5.70
2023-10-12T23:48:08.913Z,7.53
2023-10-12T23:50:38.001Z,7.13
2023-10-12T23:53:08.634Z,8.43
2023-10-12T23:55:42.352Z,5.87
2023-10-12T23:58:13.243Z,6.93
